createdAt,value
2019-02-12T00:01:03.503Z,99.90
2019-02-12T00:03:35.935Z,99.90
2019-02-12T00:06:08.262Z,99.90
2019-02-12T00:08:40.678Z,99.90
2019-02-12T00:11:13.089Z,99.90
2019-02-12T00:13:45.514Z,99.90
2019-02-12T00:16:18.120Z,99.90
2019-02-12T00:18:50.682Z,99.90
2019-02-12T00:21:23.256Z,99.90
2019-02-12T00:23:56.420Z,99.90
2019-02-12T00:26:28.839Z,99.90
2019-02-12T00:29:01.191Z,99.90
2019-02-12T00:31:33.735Z,99.90
2019-02-12T00:34:06.109Z,99.90
2019-02-12T00:36:39.235Z,99.90
2019-02-12T00:39:12.088Z,99.90
2019-02-12T00:41:44.448Z,99.90
2019-02-12T00:44:17.075Z,99.90
2019-02-12T00:46:49.923Z,99.90
2019-02-12T00:49:24.074Z,99.90
2019-02-12T00:51:56.595Z,99.90
2019-02-12T00:54:28.839Z,99.90
2019-02-12T00:57:01.817Z,99.90
2019-02-12T00:59:34.358Z,99.90
2019-02-12T01:02:06.954Z,99.90
2019-02-12T01:04:39.342Z,99.90
2019-02-12T01:07:11.958Z,99.90
2019-02-12T01:09:44.541Z,99.90
2019-02-12T01:12:17.238Z,99.90
2019-02-12T01:14:50.309Z,99.90
2019-02-12T01:17:22.626Z,99.90
2019-02-12T01:19:55.053Z,99.90
2019-02-12T01:22:27.395Z,99.90
2019-02-12T01:24:59.961Z,99.90
2019-02-12T01:27:32.410Z,99.90
2019-02-12T01:30:05.234Z,99.90
2019-02-12T01:32:37.687Z,99.90
2019-02-12T01:35:10.318Z,99.90
2019-02-12T01:37:42.762Z,99.90
2019-02-12T01:40:16.050Z,99.90
2019-02-12T01:42:48.978Z,99.90
2019-02-12T01:45:21.605Z,99.90
2019-02-12T01:47:54.344Z,99.90
2019-02-12T01:50:26.964Z,99.90
2019-02-12T01:52:59.910Z,99.90
2019-02-12T01:55:32.297Z,99.90
2019-02-12T01:58:04.608Z,99.90
2019-02-12T02:00:37.213Z,99.90
2019-02-12T02:03:09.738Z,99.90
2019-02-12T02:05:42.461Z,99.90
2019-02-12T02:08:14.709Z,99.90
2019-02-12T02:10:47.158Z,99.90
2019-02-12T02:13:19.851Z,99.90
2019-02-12T02:15:52.297Z,99.90
2019-02-12T02:18:24.993Z,99.90
2019-02-12T02:20:57.345Z,99.90
2019-02-12T02:23:29.650Z,99.90
2019-02-12T02:26:02.288Z,99.90
2019-02-12T02:28:34.816Z,99.90
2019-02-12T02:31:07.639Z,99.90
2019-02-12T02:33:40.225Z,99.90
2019-02-12T02:36:12.567Z,99.90
2019-02-12T02:38:45.048Z,99.90
2019-02-12T02:41:17.571Z,99.90
2019-02-12T02:43:50.125Z,99.90
2019-02-12T02:46:22.609Z,99.90
2019-02-12T02:48:55.201Z,99.90
2019-02-12T02:51:27.827Z,99.90
2019-02-12T02:54:00.209Z,99.90
2019-02-12T02:56:43.696Z,99.90
2019-02-12T02:59:16.138Z,99.90
2019-02-12T03:01:49.104Z,99.90
2019-02-12T03:04:21.644Z,99.90
2019-02-12T03:06:54.153Z,99.90
2019-02-12T03:09:26.425Z,99.90
2019-02-12T03:11:59.064Z,99.90
2019-02-12T03:14:31.548Z,99.90
2019-02-12T03:17:04.128Z,99.90
2019-02-12T03:19:36.640Z,99.90
2019-02-12T03:22:09.803Z,99.90
2019-02-12T03:24:42.362Z,99.90
2019-02-12T03:27:15.713Z,99.90
2019-02-12T03:29:47.948Z,99.90
2019-02-12T03:32:20.707Z,99.90
2019-02-12T03:34:52.975Z,99.90
2019-02-12T03:37:25.404Z,99.90
2019-02-12T03:39:58.320Z,99.90
2019-02-12T03:42:31.123Z,99.90
2019-02-12T03:45:03.475Z,99.90
2019-02-12T03:47:36.095Z,99.90
2019-02-12T03:50:09.426Z,99.90
2019-02-12T03:52:41.942Z,99.90
2019-02-12T03:55:14.985Z,99.90
2019-02-12T03:57:47.549Z,99.90
2019-02-12T04:00:20.219Z,99.90
2019-02-12T04:03:08.811Z,99.90
2019-02-12T04:05:42.900Z,99.90
2019-02-12T04:08:15.402Z,99.90
2019-02-12T04:10:48.364Z,99.90
2019-02-12T04:13:20.763Z,99.90
2019-02-12T04:15:53.061Z,99.90
2019-02-12T04:18:25.448Z,99.90
2019-02-12T04:20:58.039Z,99.90
2019-02-12T04:23:30.886Z,99.90
2019-02-12T04:26:03.386Z,99.90
2019-02-12T04:28:39.069Z,99.70
2019-02-12T04:31:11.751Z,99.70
2019-02-12T04:33:44.580Z,99.40
2019-02-12T04:36:17.040Z,98.70
2019-02-12T04:38:49.715Z,98.10
2019-02-12T04:41:22.205Z,97.30
2019-02-12T04:43:54.859Z,97.60
2019-02-12T04:46:27.443Z,96.50
2019-02-12T04:48:59.689Z,95.70
2019-02-12T04:51:32.425Z,96.00
2019-02-12T04:54:04.701Z,95.10
2019-02-12T04:56:36.970Z,94.80
2019-02-12T04:59:09.402Z,94.00
2019-02-12T05:01:41.869Z,93.90
2019-02-12T05:04:14.417Z,93.40
2019-02-12T05:06:47.107Z,92.20
2019-02-12T05:09:22.086Z,92.50
2019-02-12T05:12:05.971Z,92.50
2019-02-12T05:14:39.159Z,92.20
2019-02-12T05:17:11.854Z,92.70
2019-02-12T05:19:44.342Z,92.30
2019-02-12T05:22:16.587Z,92.10
2019-02-12T05:24:49.309Z,92.10
2019-02-12T05:27:22.113Z,92.40
2019-02-12T05:29:54.934Z,92.80
2019-02-12T05:32:27.427Z,93.00
2019-02-12T05:34:59.829Z,93.40
2019-02-12T05:37:32.127Z,95.30
2019-02-12T05:40:04.810Z,95.10
2019-02-12T05:42:37.272Z,94.90
2019-02-12T05:45:11.177Z,95.80
2019-02-12T05:47:43.935Z,95.40
2019-02-12T05:50:16.360Z,95.60
2019-02-12T05:52:54.257Z,96.00
2019-02-12T05:55:23.044Z,96.30
2019-02-12T05:57:55.620Z,96.70
2019-02-12T06:00:30.618Z,97.30
2019-02-12T06:03:03.202Z,97.60
2019-02-12T06:05:36.366Z,98.10
2019-02-12T06:08:09.131Z,99.40
2019-02-12T06:10:42.220Z,99.90
2019-02-12T06:13:14.732Z,99.90
2019-02-12T06:15:47.732Z,99.90
2019-02-12T06:18:20.124Z,99.90
2019-02-12T06:20:52.560Z,99.90
2019-02-12T06:23:25.179Z,99.90
2019-02-12T06:25:57.618Z,99.90
2019-02-12T06:28:30.352Z,99.90
2019-02-12T06:31:03.082Z,99.90
2019-02-12T06:33:35.887Z,99.90
2019-02-12T06:36:08.663Z,99.90
2019-02-12T06:38:41.107Z,99.90
2019-02-12T06:41:14.049Z,99.90
2019-02-12T06:43:46.751Z,99.90
2019-02-12T06:46:19.339Z,99.90
2019-02-12T06:48:51.604Z,99.90
2019-02-12T06:51:24.106Z,99.90
2019-02-12T06:53:56.711Z,99.90
2019-02-12T06:56:29.105Z,99.90
2019-02-12T06:59:03.510Z,99.90
2019-02-12T07:01:36.082Z,99.90
2019-02-12T07:04:30.711Z,99.90
2019-02-12T07:08:09.520Z,99.90
2019-02-12T07:10:42.139Z,99.90
2019-02-12T07:13:45.341Z,99.90
2019-02-12T07:17:04.684Z,99.90
2019-02-12T07:20:30.351Z,99.90
2019-02-12T07:24:04.097Z,99.90
2019-02-12T07:27:15.227Z,99.90
2019-02-12T07:30:48.636Z,99.90
2019-02-12T07:34:13.798Z,99.90
2019-02-12T07:37:39.964Z,99.90
2019-02-12T07:40:53.665Z,99.90
2019-02-12T07:44:39.216Z,99.90
2019-02-12T07:48:16.268Z,99.90
2019-02-12T07:51:42.939Z,99.90
2019-02-12T07:55:13.770Z,99.90
2019-02-12T07:58:22.873Z,99.90
2019-02-12T08:01:36.784Z,99.80
2019-02-12T08:05:24.049Z,95.90
2019-02-12T08:08:44.764Z,91.70
2019-02-12T08:12:06.870Z,88.00
2019-02-12T08:15:36.306Z,90.30
2019-02-12T08:18:31.514Z,90.80
2019-02-12T08:21:43.770Z,90.30
2019-02-12T08:24:40.099Z,91.50
2019-02-12T08:28:30.975Z,93.10
2019-02-12T08:31:28.020Z,95.60
2019-02-12T08:35:09.824Z,96.60
2019-02-12T08:38:23.770Z,97.80
2019-02-12T08:41:41.175Z,98.80
2019-02-12T08:44:49.984Z,99.90
2019-02-12T08:48:14.901Z,99.90
2019-02-12T08:51:37.809Z,99.90
2019-02-12T08:55:11.552Z,99.90
2019-02-12T08:58:55.113Z,99.90
2019-02-12T09:02:04.082Z,99.90
2019-02-12T09:05:58.229Z,99.90
2019-02-12T09:09:36.739Z,98.50
2019-02-12T09:12:52.913Z,99.00
2019-02-12T09:16:24.197Z,98.60
2019-02-12T09:19:54.682Z,98.50
2019-02-12T09:23:39.093Z,98.20
2019-02-12T09:26:35.120Z,98.50
2019-02-12T09:30:05.752Z,98.60
2019-02-12T09:33:26.645Z,98.30
2019-02-12T09:37:16.762Z,98.10
2019-02-12T09:40:38.147Z,97.20
2019-02-12T09:44:03.924Z,97.00
2019-02-12T09:47:39.433Z,96.90
2019-02-12T09:51:40.496Z,96.30
2019-02-12T09:54:48.037Z,95.90
2019-02-12T09:58:10.112Z,95.30
2019-02-12T10:01:10.064Z,93.40
2019-02-12T10:04:43.073Z,92.30
2019-02-12T10:07:52.390Z,91.10
2019-02-12T10:11:21.134Z,90.40
2019-02-12T10:14:14.981Z,88.50
2019-02-12T10:17:19.483Z,88.60
2019-02-12T10:20:47.150Z,90.00
2019-02-12T10:24:07.421Z,89.90
2019-02-12T10:26:41.951Z,87.00
2019-02-12T10:29:43.645Z,85.20
2019-02-12T10:32:12.862Z,84.80
2019-02-12T10:34:45.184Z,85.00
2019-02-12T10:37:17.599Z,86.10
2019-02-12T10:39:50.093Z,86.40
2019-02-12T10:42:22.480Z,86.00
2019-02-12T10:44:55.109Z,86.00
2019-02-12T10:47:27.388Z,85.80
2019-02-12T10:49:59.873Z,86.10
2019-02-12T10:52:32.192Z,87.30
2019-02-12T10:55:04.912Z,88.40
2019-02-12T10:57:37.447Z,89.70
2019-02-12T11:00:14.123Z,90.00
2019-02-12T11:02:46.549Z,89.70
2019-02-12T11:05:19.432Z,90.10
2019-02-12T11:07:51.868Z,88.10
2019-02-12T11:10:35.386Z,88.60
2019-02-12T11:13:07.786Z,89.20
2019-02-12T11:15:40.648Z,88.60
2019-02-12T11:18:13.123Z,90.00
2019-02-12T11:20:45.779Z,90.40
2019-02-12T11:23:18.359Z,90.90
2019-02-12T11:25:51.205Z,92.10
2019-02-12T11:28:23.624Z,93.00
2019-02-12T11:30:56.398Z,93.40
2019-02-12T11:33:28.982Z,94.00
2019-02-12T11:36:01.360Z,94.50
2019-02-12T11:38:33.706Z,94.60
2019-02-12T11:41:06.389Z,94.30
2019-02-12T11:43:38.920Z,94.50
2019-02-12T11:46:11.287Z,95.10
2019-02-12T11:48:43.708Z,95.40
2019-02-12T11:51:15.985Z,95.30
2019-02-12T11:53:48.934Z,94.30
2019-02-12T11:56:21.403Z,94.00
2019-02-12T11:58:54.305Z,93.80
2019-02-12T12:01:30.075Z,93.10
2019-02-12T12:04:02.887Z,92.90
2019-02-12T12:06:35.421Z,93.20
2019-02-12T12:09:08.124Z,92.80
2019-02-12T12:11:40.060Z,91.70
2019-02-12T12:14:12.815Z,91.90
2019-02-12T12:16:45.262Z,92.10
2019-02-12T12:19:17.656Z,92.10
2019-02-12T12:21:50.446Z,91.40
2019-02-12T12:24:22.771Z,90.70
2019-02-12T12:26:55.285Z,86.60
2019-02-12T12:29:27.768Z,84.90
2019-02-12T12:32:00.660Z,84.20
2019-02-12T12:34:34.448Z,87.30
2019-02-12T12:37:06.838Z,87.30
2019-02-12T12:39:41.201Z,89.10
2019-02-12T12:42:13.653Z,90.30
2019-02-12T12:44:45.883Z,90.00
2019-02-12T12:47:18.556Z,90.10
2019-02-12T12:49:51.165Z,89.70
2019-02-12T12:52:24.288Z,90.20
2019-02-12T12:54:59.893Z,90.70
2019-02-12T12:57:31.177Z,91.10
2019-02-12T13:00:03.771Z,91.40
2019-02-12T13:02:36.103Z,92.30
2019-02-12T13:05:10.970Z,92.90
2019-02-12T13:07:43.817Z,93.40
2019-02-12T13:10:16.977Z,94.30
2019-02-12T13:12:49.616Z,94.00
2019-02-12T13:15:22.224Z,94.00
2019-02-12T13:17:54.692Z,94.50
2019-02-12T13:20:29.074Z,93.80
2019-02-12T13:23:01.791Z,93.30
2019-02-12T13:25:34.691Z,93.00
2019-02-12T13:28:07.495Z,92.00
2019-02-12T13:30:39.834Z,91.20
2019-02-12T13:33:13.217Z,92.00
2019-02-12T13:35:45.637Z,92.60
2019-02-12T13:38:18.072Z,92.80
2019-02-12T13:40:50.621Z,92.70
2019-02-12T13:43:23.333Z,92.00
2019-02-12T13:45:55.640Z,92.40
2019-02-12T13:48:28.285Z,93.60
2019-02-12T13:51:00.671Z,94.40
2019-02-12T13:53:33.337Z,94.60
2019-02-12T13:56:05.720Z,93.80
2019-02-12T13:58:38.347Z,94.00
2019-02-12T14:01:10.879Z,93.60
2019-02-12T14:03:44.129Z,93.20
2019-02-12T14:06:16.844Z,93.00
2019-02-12T14:08:49.344Z,93.20
2019-02-12T14:11:21.700Z,92.90
2019-02-12T14:13:54.635Z,92.70
2019-02-12T14:16:27.318Z,92.40
2019-02-12T14:19:01.518Z,92.50
2019-02-12T14:21:35.439Z,92.70
2019-02-12T14:24:08.754Z,93.60
2019-02-12T14:26:41.340Z,93.80
2019-02-12T14:29:14.181Z,94.70
2019-02-12T14:31:52.800Z,95.50
2019-02-12T14:34:21.114Z,95.70
2019-02-12T14:36:53.850Z,95.90
2019-02-12T14:39:27.317Z,98.10
2019-02-12T14:41:59.816Z,97.10
2019-02-12T14:44:32.528Z,97.20
2019-02-12T14:47:05.063Z,97.30
2019-02-12T14:49:37.729Z,97.50
2019-02-12T14:52:10.308Z,97.80
2019-02-12T14:54:42.900Z,97.80
2019-02-12T14:57:15.377Z,98.40
2019-02-12T14:59:49.365Z,99.70
2019-02-12T15:02:21.999Z,99.90
2019-02-12T15:05:00.455Z,99.90
2019-02-12T15:07:28.978Z,99.90
2019-02-12T15:10:01.825Z,99.90
2019-02-12T15:12:34.269Z,99.90
2019-02-12T15:15:07.113Z,99.90
2019-02-12T15:17:39.565Z,99.90
2019-02-12T15:20:12.710Z,99.90
2019-02-12T15:22:45.249Z,99.60
2019-02-12T15:25:18.180Z,98.70
2019-02-12T15:27:50.439Z,99.20
2019-02-12T15:30:22.970Z,98.80
2019-02-12T15:32:55.397Z,99.20
2019-02-12T15:35:27.922Z,99.40
2019-02-12T15:38:00.681Z,99.50
2019-02-12T15:40:33.383Z,99.90
2019-02-12T15:43:05.891Z,99.90
2019-02-12T15:45:38.792Z,99.80
2019-02-12T15:48:11.473Z,99.60
2019-02-12T15:50:44.045Z,99.90
2019-02-12T15:53:16.574Z,99.90
2019-02-12T15:55:51.359Z,99.90
2019-02-12T15:58:23.655Z,99.90
2019-02-12T16:00:56.777Z,99.90
2019-02-12T16:03:29.278Z,99.90
2019-02-12T16:06:01.834Z,99.90
2019-02-12T16:08:34.808Z,99.90
2019-02-12T16:11:07.547Z,99.90
2019-02-12T16:13:41.677Z,99.90
2019-02-12T16:16:14.206Z,99.90
2019-02-12T16:18:47.827Z,99.90
2019-02-12T16:21:20.701Z,99.90
2019-02-12T16:23:53.509Z,99.90
2019-02-12T16:26:26.147Z,99.90
2019-02-12T16:28:58.692Z,99.90
2019-02-12T16:31:31.307Z,99.90
2019-02-12T16:34:03.987Z,99.60
2019-02-12T16:36:36.542Z,99.90
2019-02-12T16:39:10.115Z,99.40
2019-02-12T16:41:42.675Z,99.10
2019-02-12T16:44:15.135Z,98.30
2019-02-12T16:46:47.774Z,98.10
2019-02-12T16:49:20.672Z,97.20
2019-02-12T16:51:53.246Z,96.40
2019-02-12T16:54:25.711Z,96.70
2019-02-12T16:56:58.429Z,97.10
2019-02-12T16:59:31.003Z,97.00
2019-02-12T17:02:03.404Z,97.10
2019-02-12T17:04:36.067Z,97.00
2019-02-12T17:07:08.642Z,97.00
2019-02-12T17:09:41.155Z,96.80
2019-02-12T17:12:13.910Z,97.10
2019-02-12T17:14:46.668Z,97.40
2019-02-12T17:17:19.620Z,97.30
2019-02-12T17:19:52.508Z,97.60
2019-02-12T17:22:25.068Z,98.30
2019-02-12T17:24:58.290Z,98.40
2019-02-12T17:27:31.114Z,98.50
2019-02-12T17:30:05.756Z,99.10
2019-02-12T17:32:38.307Z,99.40
2019-02-12T17:35:11.197Z,99.80
2019-02-12T17:37:54.937Z,99.90
2019-02-12T17:40:27.510Z,99.90
2019-02-12T17:43:00.057Z,99.90
2019-02-12T17:45:32.622Z,99.90
2019-02-12T17:48:05.141Z,99.90
2019-02-12T17:50:37.492Z,99.90
2019-02-12T17:53:09.943Z,99.90
2019-02-12T17:55:42.368Z,99.90
2019-02-12T17:58:15.346Z,99.90
2019-02-12T18:00:48.139Z,99.90
2019-02-12T18:03:20.536Z,99.90
2019-02-12T18:05:53.120Z,99.90
2019-02-12T18:08:25.652Z,99.90
2019-02-12T18:10:59.726Z,99.90
2019-02-12T18:13:32.376Z,99.90
2019-02-12T18:16:04.893Z,99.90
2019-02-12T18:18:37.423Z,99.90
2019-02-12T18:21:10.010Z,99.90
2019-02-12T18:23:42.566Z,99.90
2019-02-12T18:26:15.372Z,99.90
2019-02-12T18:28:48.145Z,99.90
2019-02-12T18:31:21.064Z,99.90
2019-02-12T18:33:53.741Z,99.90
2019-02-12T18:36:26.707Z,99.90
2019-02-12T18:38:59.201Z,99.90
2019-02-12T18:41:31.534Z,99.90
2019-02-12T18:44:04.027Z,99.90
2019-02-12T18:46:36.661Z,99.90
2019-02-12T18:49:09.217Z,99.90
2019-02-12T18:51:41.777Z,99.90
2019-02-12T18:54:14.567Z,99.90
2019-02-12T18:56:47.064Z,99.90
2019-02-12T18:59:19.434Z,99.90
2019-02-12T19:01:52.380Z,99.90
2019-02-12T19:04:24.946Z,99.90
2019-02-12T19:06:57.723Z,99.90
2019-02-12T19:09:30.301Z,99.90
2019-02-12T19:12:03.363Z,99.90
2019-02-12T19:14:36.143Z,99.90
2019-02-12T19:17:08.820Z,99.90
2019-02-12T19:19:41.274Z,99.90
2019-02-12T19:22:14.109Z,99.90
2019-02-12T19:24:46.977Z,99.90
2019-02-12T19:27:19.662Z,99.90
2019-02-12T19:29:52.547Z,99.90
2019-02-12T19:32:25.369Z,99.90
2019-02-12T19:34:58.283Z,99.90
2019-02-12T19:37:30.719Z,99.90
2019-02-12T19:40:03.290Z,99.90
2019-02-12T19:42:38.304Z,99.90
2019-02-12T19:45:11.525Z,99.90
2019-02-12T19:47:44.124Z,99.90
2019-02-12T19:50:16.671Z,99.90
2019-02-12T19:52:49.593Z,99.90
2019-02-12T19:55:21.958Z,99.90
2019-02-12T19:57:54.378Z,99.90
2019-02-12T20:00:26.763Z,99.90
2019-02-12T20:02:59.672Z,99.90
2019-02-12T20:05:32.338Z,99.90
2019-02-12T20:08:05.207Z,99.90
2019-02-12T20:10:38.013Z,99.90
2019-02-12T20:13:12.156Z,99.90
2019-02-12T20:15:44.674Z,99.90
2019-02-12T20:18:17.136Z,99.90
2019-02-12T20:20:50.143Z,99.90
2019-02-12T20:23:22.960Z,99.90
2019-02-12T20:25:55.920Z,99.90
2019-02-12T20:28:28.384Z,99.90
2019-02-12T20:31:01.101Z,99.90
2019-02-12T20:33:34.205Z,99.90
2019-02-12T20:36:06.628Z,99.90
2019-02-12T20:38:39.239Z,99.90
2019-02-12T20:41:12.028Z,99.90
2019-02-12T20:43:44.901Z,99.90
2019-02-12T20:46:17.561Z,99.90
2019-02-12T20:48:51.170Z,99.90
2019-02-12T20:51:23.642Z,99.90
2019-02-12T20:53:56.589Z,99.90
2019-02-12T20:56:29.317Z,99.90
2019-02-12T20:59:02.279Z,99.90
2019-02-12T21:01:34.892Z,99.90
2019-02-12T21:04:07.966Z,99.90
2019-02-12T21:06:40.426Z,99.90
2019-02-12T21:09:13.359Z,99.90
2019-02-12T21:11:46.242Z,99.90
2019-02-12T21:14:18.927Z,99.90
2019-02-12T21:16:51.354Z,99.90
2019-02-12T21:19:24.075Z,99.90
2019-02-12T21:21:56.982Z,99.90
2019-02-12T21:24:29.907Z,99.90
2019-02-12T21:27:02.521Z,99.90
2019-02-12T21:29:35.203Z,99.90
2019-02-12T21:32:08.173Z,99.90
2019-02-12T21:34:40.791Z,99.90
2019-02-12T21:37:13.317Z,99.90
2019-02-12T21:39:46.263Z,99.90
2019-02-12T21:42:18.662Z,99.90
2019-02-12T21:44:51.317Z,99.90
2019-02-12T21:47:24.107Z,99.90
2019-02-12T21:49:56.984Z,99.90
2019-02-12T21:52:29.765Z,99.90
2019-02-12T21:55:02.535Z,99.90
2019-02-12T21:57:34.744Z,99.90
2019-02-12T22:00:09.612Z,99.90
2019-02-12T22:02:42.193Z,99.90
2019-02-12T22:05:16.042Z,99.90
2019-02-12T22:07:48.656Z,99.90
2019-02-12T22:10:21.507Z,99.90
2019-02-12T22:12:54.169Z,99.90
2019-02-12T22:15:26.814Z,99.90
2019-02-12T22:17:59.310Z,99.90
2019-02-12T22:20:31.920Z,99.90
2019-02-12T22:23:04.396Z,99.90
2019-02-12T22:25:37.219Z,99.90
2019-02-12T22:28:09.867Z,99.90
2019-02-12T22:30:42.312Z,99.90
2019-02-12T22:33:14.889Z,99.90
2019-02-12T22:35:47.487Z,99.90
2019-02-12T22:38:19.911Z,99.90
2019-02-12T22:40:52.355Z,99.90
2019-02-12T22:43:24.928Z,99.90
2019-02-12T22:45:59.317Z,99.90
2019-02-12T22:48:31.833Z,99.90
2019-02-12T22:51:04.794Z,99.90
2019-02-12T22:53:37.107Z,99.90
2019-02-12T22:56:10.112Z,99.90
2019-02-12T22:58:42.749Z,99.90
2019-02-12T23:01:15.774Z,99.90
2019-02-12T23:03:49.145Z,99.90
2019-02-12T23:06:21.762Z,99.90
2019-02-12T23:08:54.666Z,99.90
2019-02-12T23:11:27.190Z,99.90
2019-02-12T23:13:59.794Z,99.90
2019-02-12T23:16:32.145Z,99.90
2019-02-12T23:19:04.995Z,99.90
2019-02-12T23:21:37.272Z,99.90
2019-02-12T23:24:09.876Z,99.90
2019-02-12T23:26:42.491Z,99.90
2019-02-12T23:29:14.975Z,99.90
2019-02-12T23:31:48.154Z,99.90
2019-02-12T23:34:20.787Z,99.90
2019-02-12T23:36:53.253Z,99.90
2019-02-12T23:39:25.937Z,99.90
2019-02-12T23:41:58.503Z,99.90
2019-02-12T23:44:31.355Z,99.90
2019-02-12T23:47:05.409Z,99.90
2019-02-12T23:49:37.890Z,99.90
2019-02-12T23:52:10.295Z,99.90
2019-02-12T23:54:43.043Z,99.90
2019-02-12T23:57:15.781Z,99.90
2019-02-12T23:59:49.379Z,99.90
